createdAt,value
2019-02-09T00:02:09.163Z,83.77
2019-02-09T00:04:39.532Z,88.57
2019-02-09T00:07:10.014Z,87.60
2019-02-09T00:09:40.382Z,90.07
2019-02-09T00:12:10.716Z,85.23
2019-02-09T00:14:41.009Z,87.67
2019-02-09T00:17:12.742Z,89.53
2019-02-09T00:19:42.987Z,89.17
2019-02-09T00:22:13.400Z,88.60
2019-02-09T00:24:43.719Z,91.87
2019-02-09T00:27:14.019Z,96.57
2019-02-09T00:29:46.492Z,93.90
2019-02-09T00:32:16.454Z,89.23
2019-02-09T00:34:47.080Z,89.13
2019-02-09T00:37:17.442Z,90.60
2019-02-09T00:39:48.153Z,87.93
2019-02-09T00:42:19.500Z,89.30
2019-02-09T00:44:49.725Z,92.83
2019-02-09T00:47:20.066Z,90.40
2019-02-09T00:49:50.559Z,95.50
2019-02-09T00:52:20.858Z,94.93
2019-02-09T00:54:52.313Z,90.27
2019-02-09T00:57:22.742Z,95.83
2019-02-09T00:59:54.420Z,94.43
2019-02-09T01:02:25.025Z,97.93
2019-02-09T01:04:55.299Z,95.77
2019-02-09T01:07:25.679Z,98.17
2019-02-09T01:09:57.045Z,94.10
2019-02-09T01:12:27.442Z,97.10
2019-02-09T01:14:57.763Z,88.47
2019-02-09T01:17:28.063Z,91.73
2019-02-09T01:19:58.386Z,94.57
2019-02-09T01:22:28.812Z,95.07
2019-02-09T01:24:59.116Z,97.73
2019-02-09T01:27:29.501Z,93.97
2019-02-09T01:30:02.520Z,93.40
2019-02-09T01:32:31.990Z,92.97
2019-02-09T01:35:02.623Z,87.53
2019-02-09T01:37:33.241Z,91.20
2019-02-09T01:40:03.973Z,88.50
2019-02-09T01:42:34.272Z,97.00
2019-02-09T01:45:06.779Z,90.70
2019-02-09T01:47:37.204Z,93.17
2019-02-09T01:50:09.570Z,94.27
2019-02-09T01:52:39.902Z,92.90
2019-02-09T01:55:10.717Z,94.47
2019-02-09T01:57:41.103Z,94.20
2019-02-09T02:00:16.910Z,92.10
2019-02-09T02:02:47.167Z,92.00
2019-02-09T02:05:17.939Z,93.13
2019-02-09T02:07:48.414Z,95.00
2019-02-09T02:10:28.288Z,90.50
2019-02-09T02:13:00.404Z,88.67
2019-02-09T02:15:31.632Z,88.10
2019-02-09T02:18:02.092Z,93.23
2019-02-09T02:20:32.360Z,92.87
2019-02-09T02:23:02.945Z,91.23
2019-02-09T02:25:33.421Z,90.73
2019-02-09T02:28:03.995Z,90.43
2019-02-09T02:30:36.189Z,88.07
2019-02-09T02:33:07.196Z,91.30
2019-02-09T02:35:37.649Z,88.77
2019-02-09T02:38:27.252Z,88.47
2019-02-09T02:40:57.609Z,88.47
2019-02-09T02:43:28.063Z,87.53
2019-02-09T02:45:58.449Z,87.17
2019-02-09T02:48:28.823Z,89.00
2019-02-09T02:50:59.449Z,87.50
2019-02-09T02:53:29.859Z,85.27
2019-02-09T02:56:01.112Z,84.70
2019-02-09T02:58:31.307Z,82.57
2019-02-09T03:01:01.975Z,83.87
2019-02-09T03:03:33.424Z,82.20
2019-02-09T03:06:03.742Z,84.90
2019-02-09T03:08:34.094Z,85.30
2019-02-09T03:11:04.583Z,85.40
2019-02-09T03:13:34.944Z,84.43
2019-02-09T03:16:05.556Z,86.17
2019-02-09T03:18:36.084Z,86.00
2019-02-09T03:21:06.465Z,81.83
2019-02-09T03:23:36.720Z,86.40
2019-02-09T03:26:06.993Z,86.13
2019-02-09T03:28:37.283Z,81.40
2019-02-09T03:31:07.698Z,77.77
2019-02-09T03:33:37.968Z,83.30
2019-02-09T03:36:08.716Z,78.67
2019-02-09T03:38:39.079Z,84.33
2019-02-09T03:41:09.823Z,85.60
2019-02-09T03:43:40.158Z,86.43
2019-02-09T03:46:10.410Z,84.53
2019-02-09T03:48:40.670Z,85.37
2019-02-09T03:51:11.099Z,81.53
2019-02-09T03:53:41.500Z,82.50
2019-02-09T03:56:11.875Z,83.33
2019-02-09T03:58:42.272Z,80.67
2019-02-09T04:01:12.721Z,82.60
2019-02-09T04:03:43.054Z,81.87
2019-02-09T04:06:13.397Z,80.13
2019-02-09T04:08:43.749Z,81.43
2019-02-09T04:11:14.336Z,78.90
2019-02-09T04:13:44.715Z,81.07
2019-02-09T04:16:15.067Z,78.23
2019-02-09T04:18:45.552Z,83.93
2019-02-09T04:21:16.035Z,81.40
2019-02-09T04:23:46.285Z,78.93
2019-02-09T04:26:16.722Z,81.63
2019-02-09T04:28:46.957Z,76.70
2019-02-09T04:31:17.260Z,78.57
2019-02-09T04:33:47.601Z,77.53
2019-02-09T04:36:17.941Z,78.60
2019-02-09T04:38:48.346Z,79.40
2019-02-09T04:41:18.835Z,79.67
2019-02-09T04:43:49.253Z,81.63
2019-02-09T04:46:19.677Z,81.07
2019-02-09T04:48:50.008Z,80.47
2019-02-09T04:51:20.321Z,77.20
2019-02-09T04:53:50.662Z,78.50
2019-02-09T04:56:21.168Z,78.20
2019-02-09T04:58:51.402Z,78.50
2019-02-09T05:01:21.752Z,78.13
2019-02-09T05:03:52.036Z,78.60
2019-02-09T05:06:22.504Z,79.93
2019-02-09T05:08:53.009Z,80.13
2019-02-09T05:11:23.393Z,81.50
2019-02-09T05:13:53.870Z,72.87
2019-02-09T05:16:24.134Z,78.90
2019-02-09T05:18:54.542Z,77.70
2019-02-09T05:21:24.899Z,76.13
2019-02-09T05:23:55.197Z,75.57
2019-02-09T05:26:25.504Z,76.33
2019-02-09T05:28:55.903Z,75.70
2019-02-09T05:31:26.325Z,72.73
2019-02-09T05:33:56.707Z,72.43
2019-02-09T05:36:26.992Z,70.23
2019-02-09T05:38:57.299Z,70.97
2019-02-09T05:41:27.570Z,71.50
2019-02-09T05:43:57.857Z,73.13
2019-02-09T05:46:28.363Z,69.60
2019-02-09T05:48:58.881Z,70.07
2019-02-09T05:51:29.248Z,70.63
2019-02-09T05:53:59.755Z,71.20
2019-02-09T05:56:30.134Z,76.00
2019-02-09T05:59:01.380Z,73.67
2019-02-09T06:01:32.654Z,73.77
2019-02-09T06:04:03.234Z,67.63
2019-02-09T06:06:33.646Z,70.87
2019-02-09T06:09:06.183Z,70.20
2019-02-09T06:11:36.574Z,66.00
2019-02-09T06:14:06.961Z,66.47
2019-02-09T06:16:37.251Z,67.07
2019-02-09T06:19:07.600Z,65.00
2019-02-09T06:21:37.844Z,64.87
2019-02-09T06:24:08.153Z,65.57
2019-02-09T06:26:38.484Z,64.13
2019-02-09T06:29:09.044Z,62.47
2019-02-09T06:31:41.186Z,60.33
2019-02-09T06:34:11.593Z,61.00
2019-02-09T06:36:42.086Z,59.97
2019-02-09T06:39:12.375Z,62.07
2019-02-09T06:41:42.662Z,58.80
2019-02-09T06:44:12.915Z,57.30
2019-02-09T06:46:43.533Z,56.40
2019-02-09T06:49:13.957Z,55.60
2019-02-09T06:51:44.282Z,55.07
2019-02-09T06:54:14.602Z,55.53
2019-02-09T06:56:45.973Z,55.23
2019-02-09T06:59:16.373Z,54.83
2019-02-09T07:01:48.793Z,56.70
2019-02-09T07:04:19.004Z,54.43
2019-02-09T07:06:49.322Z,54.93
2019-02-09T07:09:19.715Z,52.43
2019-02-09T07:11:50.030Z,53.90
2019-02-09T07:14:20.350Z,52.40
2019-02-09T07:16:50.614Z,52.43
2019-02-09T07:19:21.019Z,53.63
2019-02-09T07:21:52.371Z,51.20
2019-02-09T07:24:22.756Z,49.60
2019-02-09T07:26:53.218Z,50.67
2019-02-09T07:29:23.652Z,49.30
2019-02-09T07:31:56.457Z,49.60
2019-02-09T07:34:25.911Z,50.90
2019-02-09T07:36:56.184Z,49.00
2019-02-09T07:39:27.037Z,54.90
2019-02-09T07:41:57.389Z,49.60
2019-02-09T07:44:27.723Z,54.80
2019-02-09T07:46:58.038Z,51.13
2019-02-09T07:49:28.405Z,51.70
2019-02-09T07:51:58.923Z,50.77
2019-02-09T07:54:29.222Z,54.93
2019-02-09T07:56:59.779Z,54.13
2019-02-09T07:59:30.092Z,55.20
2019-02-09T08:02:04.670Z,55.97
2019-02-09T08:04:32.635Z,55.67
2019-02-09T08:07:02.983Z,56.23
2019-02-09T08:09:33.286Z,54.70
2019-02-09T08:12:03.853Z,56.83
2019-02-09T08:14:34.178Z,57.80
2019-02-09T08:17:04.575Z,52.50
2019-02-09T08:19:34.869Z,52.80
2019-02-09T08:22:05.379Z,55.87
2019-02-09T08:24:35.833Z,51.63
2019-02-09T08:27:08.032Z,54.63
2019-02-09T08:29:38.450Z,55.23
2019-02-09T08:32:12.696Z,55.23
2019-02-09T08:34:41.001Z,53.60
2019-02-09T08:37:11.386Z,51.83
2019-02-09T08:39:44.355Z,55.73
2019-02-09T08:42:14.751Z,52.60
2019-02-09T08:44:45.102Z,55.77
2019-02-09T08:47:15.494Z,56.10
2019-02-09T08:49:46.005Z,55.50
2019-02-09T08:52:16.917Z,56.23
2019-02-09T08:54:47.301Z,55.67
2019-02-09T08:57:17.680Z,56.63
2019-02-09T08:59:48.235Z,54.67
2019-02-09T09:02:20.659Z,54.57
2019-02-09T09:04:50.896Z,54.73
2019-02-09T09:10:17.829Z,53.77
2019-02-09T09:12:48.430Z,54.33
2019-02-09T09:15:22.231Z,51.80
2019-02-09T09:17:52.649Z,54.40
2019-02-09T09:20:25.869Z,49.53
2019-02-09T09:22:56.419Z,50.90
2019-02-09T09:25:26.889Z,51.00
2019-02-09T09:27:57.512Z,52.03
2019-02-09T09:30:28.474Z,50.00
2019-02-09T09:32:59.120Z,49.87
2019-02-09T09:35:30.488Z,50.27
2019-02-09T09:38:01.069Z,48.63
2019-02-09T09:40:39.652Z,49.67
2019-02-09T09:43:10.344Z,49.13
2019-02-09T09:45:41.132Z,48.97
2019-02-09T09:48:13.513Z,47.83
2019-02-09T09:50:43.965Z,47.97
2019-02-09T09:53:14.601Z,48.07
2019-02-09T09:55:45.113Z,46.63
2019-02-09T09:58:15.873Z,46.13
2019-02-09T10:00:46.162Z,46.70
2019-02-09T10:03:16.555Z,45.90
2019-02-09T10:05:47.240Z,45.00
2019-02-09T10:08:17.669Z,43.70
2019-02-09T10:10:48.095Z,43.77
2019-02-09T10:13:18.645Z,43.60
2019-02-09T10:15:49.169Z,44.27
2019-02-09T10:18:19.647Z,42.10
2019-02-09T10:20:49.983Z,39.10
2019-02-09T10:23:20.402Z,43.93
2019-02-09T10:25:50.792Z,44.27
2019-02-09T10:28:21.275Z,44.27
2019-02-09T10:30:51.638Z,41.73
2019-02-09T10:33:22.194Z,42.07
2019-02-09T10:35:52.895Z,41.47
2019-02-09T10:38:23.566Z,41.63
2019-02-09T10:40:55.239Z,42.10
2019-02-09T10:43:26.782Z,40.93
2019-02-09T10:45:57.429Z,40.00
2019-02-09T10:48:27.877Z,42.33
2019-02-09T10:50:58.435Z,42.47
2019-02-09T10:53:29.131Z,40.33
2019-02-09T10:55:59.655Z,40.57
2019-02-09T10:58:30.212Z,41.53
2019-02-09T11:01:06.563Z,39.67
2019-02-09T11:03:37.133Z,40.93
2019-02-09T11:06:08.857Z,41.03
2019-02-09T11:08:39.296Z,39.80
2019-02-09T11:11:09.742Z,40.07
2019-02-09T11:13:40.087Z,34.93
2019-02-09T11:16:10.618Z,33.03
2019-02-09T11:18:41.302Z,25.93
2019-02-09T11:21:11.565Z,26.27
2019-02-09T11:23:42.049Z,22.23
2019-02-09T11:26:12.911Z,24.77
2019-02-09T11:28:45.285Z,23.10
2019-02-09T11:31:15.838Z,24.33
2019-02-09T11:33:46.311Z,24.27
2019-02-09T11:36:16.880Z,24.60
2019-02-09T11:38:47.312Z,22.10
2019-02-09T11:41:17.754Z,24.70
2019-02-09T11:43:48.226Z,23.27
2019-02-09T11:46:18.743Z,21.97
2019-02-09T11:48:49.154Z,24.43
2019-02-09T11:51:19.815Z,22.03
2019-02-09T11:53:50.233Z,23.03
2019-02-09T11:56:20.860Z,23.57
2019-02-09T11:58:51.178Z,23.27
2019-02-09T12:01:21.718Z,22.60
2019-02-09T12:03:52.127Z,22.90
2019-02-09T12:06:22.458Z,23.23
2019-02-09T12:08:52.987Z,22.87
2019-02-09T12:11:23.733Z,22.50
2019-02-09T12:13:55.553Z,22.90
2019-02-09T12:16:26.150Z,22.23
2019-02-09T12:18:56.586Z,22.53
2019-02-09T12:21:26.963Z,22.10
2019-02-09T12:23:57.423Z,23.10
2019-02-09T12:26:27.772Z,21.77
2019-02-09T12:28:58.138Z,22.47
2019-02-09T12:31:28.854Z,23.20
2019-02-09T12:33:59.306Z,22.33
2019-02-09T12:36:29.784Z,23.10
2019-02-09T12:38:59.983Z,23.33
2019-02-09T12:41:30.439Z,21.97
2019-02-09T12:44:00.974Z,21.87
2019-02-09T12:46:32.104Z,23.60
2019-02-09T12:49:03.002Z,23.00
2019-02-09T12:51:33.515Z,22.90
2019-02-09T12:54:03.844Z,23.33
2019-02-09T12:56:34.309Z,23.17
2019-02-09T12:59:04.914Z,24.23
2019-02-09T13:01:41.784Z,22.83
2019-02-09T13:04:12.324Z,22.30
2019-02-09T13:06:42.924Z,23.87
2019-02-09T13:09:13.424Z,23.83
2019-02-09T13:11:44.005Z,24.53
2019-02-09T13:14:14.413Z,23.13
2019-02-09T13:16:44.969Z,25.27
2019-02-09T13:19:17.161Z,22.13
2019-02-09T13:21:51.643Z,22.77
2019-02-09T13:24:22.124Z,22.30
2019-02-09T13:26:52.862Z,22.70
2019-02-09T13:29:23.253Z,22.77
2019-02-09T13:31:53.759Z,21.70
2019-02-09T13:34:28.073Z,22.83
2019-02-09T13:36:58.564Z,24.03
2019-02-09T13:40:22.083Z,23.80
2019-02-09T13:43:13.464Z,22.70
2019-02-09T13:45:47.056Z,22.67
2019-02-09T13:48:17.529Z,24.83
2019-02-09T13:50:54.253Z,23.80
2019-02-09T13:53:26.248Z,24.67
2019-02-09T13:55:56.892Z,24.90
2019-02-09T13:58:27.527Z,26.53
2019-02-09T14:00:57.940Z,26.97
2019-02-09T14:03:28.385Z,25.30
2019-02-09T14:05:58.864Z,25.20
2019-02-09T14:08:29.567Z,26.27
2019-02-09T14:11:00.293Z,26.97
2019-02-09T14:13:30.804Z,27.27
2019-02-09T14:16:08.295Z,28.13
2019-02-09T14:18:33.504Z,26.90
2019-02-09T14:21:03.922Z,29.03
2019-02-09T14:23:34.463Z,26.10
2019-02-09T14:26:05.029Z,26.97
2019-02-09T14:28:35.450Z,25.93
2019-02-09T14:31:05.855Z,26.87
2019-02-09T14:33:36.340Z,27.37
2019-02-09T14:36:06.785Z,25.97
2019-02-09T14:38:37.256Z,28.00
2019-02-09T14:41:07.687Z,29.13
2019-02-09T14:43:38.052Z,27.07
2019-02-09T14:46:08.473Z,27.40
2019-02-09T14:48:39.011Z,27.97
2019-02-09T14:51:09.570Z,28.27
2019-02-09T14:53:40.321Z,26.40
2019-02-09T14:56:10.927Z,27.83
2019-02-09T14:58:41.749Z,28.03
2019-02-09T15:01:12.121Z,28.37
2019-02-09T15:03:42.653Z,28.83
2019-02-09T15:06:14.153Z,29.10
2019-02-09T15:08:51.753Z,28.13
2019-02-09T15:11:22.389Z,28.13
2019-02-09T15:13:52.694Z,28.93
2019-02-09T15:16:48.750Z,28.73
2019-02-09T15:19:22.233Z,28.07
2019-02-09T15:21:53.032Z,27.23
2019-02-09T15:24:23.796Z,28.70
2019-02-09T15:26:54.326Z,28.23
2019-02-09T15:29:26.040Z,29.03
2019-02-09T15:31:56.516Z,27.43
2019-02-09T15:34:27.055Z,27.80
2019-02-09T15:36:57.663Z,28.50
2019-02-09T15:39:28.306Z,28.80
2019-02-09T15:41:58.774Z,28.47
2019-02-09T15:44:29.288Z,27.00
2019-02-09T15:46:59.858Z,28.10
2019-02-09T15:49:30.471Z,27.40
2019-02-09T15:52:01.043Z,27.47
2019-02-09T15:54:31.708Z,27.77
2019-02-09T15:57:02.202Z,26.20
2019-02-09T15:59:32.627Z,25.63
2019-02-09T16:02:03.078Z,25.67
2019-02-09T16:04:33.761Z,25.10
2019-02-09T16:07:04.180Z,25.27
2019-02-09T16:09:34.482Z,25.37
2019-02-09T16:12:05.112Z,24.30
2019-02-09T16:14:36.450Z,24.37
2019-02-09T16:17:06.841Z,25.27
2019-02-09T16:19:37.310Z,23.80
2019-02-09T16:22:09.560Z,24.60
2019-02-09T16:24:40.010Z,25.73
2019-02-09T16:27:10.386Z,24.70
2019-02-09T16:29:41.202Z,24.80
2019-02-09T16:32:11.601Z,24.90
2019-02-09T16:34:42.323Z,25.13
2019-02-09T16:37:12.689Z,26.27
2019-02-09T16:39:43.148Z,26.30
2019-02-09T16:42:13.677Z,25.20
2019-02-09T16:44:44.061Z,27.50
2019-02-09T16:47:14.426Z,25.07
2019-02-09T16:49:45.145Z,26.67
2019-02-09T16:52:15.558Z,26.10
2019-02-09T16:54:46.413Z,25.77
2019-02-09T16:57:16.916Z,26.30
2019-02-09T16:59:47.565Z,25.77
2019-02-09T17:02:18.215Z,25.93
2019-02-09T17:04:49.004Z,26.83
2019-02-09T17:07:19.604Z,25.17
2019-02-09T17:09:51.345Z,26.03
2019-02-09T17:12:22.074Z,26.93
2019-02-09T17:14:52.495Z,25.40
2019-02-09T17:17:23.038Z,26.90
2019-02-09T17:19:53.444Z,26.10
2019-02-09T17:22:23.844Z,27.77
2019-02-09T17:24:54.355Z,26.70
2019-02-09T17:27:24.744Z,26.30
2019-02-09T17:29:55.164Z,24.90
2019-02-09T17:32:25.470Z,22.60
2019-02-09T17:34:55.928Z,25.50
2019-02-09T17:37:26.764Z,24.33
2019-02-09T17:39:57.504Z,24.23
2019-02-09T17:42:27.994Z,24.20
2019-02-09T17:44:58.707Z,24.90
2019-02-09T17:47:29.377Z,24.17
2019-02-09T17:49:59.825Z,22.97
2019-02-09T17:52:30.566Z,23.27
2019-02-09T17:55:01.192Z,23.63
2019-02-09T17:57:32.718Z,22.43
2019-02-09T18:00:04.135Z,20.57
2019-02-09T18:02:35.075Z,21.97
2019-02-09T18:05:06.041Z,21.53
2019-02-09T18:07:36.702Z,21.20
2019-02-09T18:10:09.223Z,21.00
2019-02-09T18:12:39.886Z,20.10
2019-02-09T18:15:12.771Z,19.97
2019-02-09T18:17:44.287Z,20.13
2019-02-09T18:20:15.465Z,20.97
2019-02-09T18:22:46.331Z,20.00
2019-02-09T18:25:17.574Z,20.13
2019-02-09T18:27:48.273Z,20.03
2019-02-09T18:30:21.154Z,20.03
2019-02-09T18:32:52.315Z,19.30
2019-02-09T18:35:22.617Z,19.23
2019-02-09T18:37:53.066Z,21.03
2019-02-09T18:40:23.618Z,20.33
2019-02-09T18:42:54.422Z,20.37
2019-02-09T18:45:25.991Z,19.53
2019-02-09T18:47:56.458Z,19.13
2019-02-09T18:50:27.128Z,18.27
2019-02-09T18:52:58.232Z,19.27
2019-02-09T18:55:29.611Z,19.03
2019-02-09T18:57:59.996Z,19.20
2019-02-09T19:00:31.675Z,19.77
2019-02-09T19:03:02.665Z,19.90
2019-02-09T19:05:33.413Z,20.07
2019-02-09T19:08:04.859Z,19.97
2019-02-09T19:10:35.230Z,18.90
2019-02-09T19:13:05.954Z,19.60
2019-02-09T19:15:36.424Z,20.30
2019-02-09T19:18:07.265Z,21.50
2019-02-09T19:20:40.449Z,21.67
2019-02-09T19:23:11.073Z,22.33
2019-02-09T19:25:41.754Z,21.67
2019-02-09T19:28:12.143Z,21.83
2019-02-09T19:30:42.510Z,23.37
2019-02-09T19:33:13.204Z,21.97
2019-02-09T19:35:47.195Z,21.57
2019-02-09T19:38:18.204Z,22.57
2019-02-09T19:40:48.934Z,21.60
2019-02-09T19:43:19.426Z,21.13
2019-02-09T19:45:49.903Z,21.37
2019-02-09T19:48:20.321Z,22.43
2019-02-09T19:50:50.802Z,22.37
2019-02-09T19:53:21.143Z,20.67
2019-02-09T19:55:51.461Z,21.57
2019-02-09T19:58:22.087Z,22.47
2019-02-09T20:00:52.611Z,21.80
2019-02-09T20:03:23.030Z,20.70
2019-02-09T20:05:53.665Z,20.60
2019-02-09T20:08:24.193Z,21.20
2019-02-09T20:10:54.594Z,19.63
2019-02-09T20:13:25.005Z,21.90
2019-02-09T20:15:55.515Z,20.90
2019-02-09T20:18:26.343Z,21.70
2019-02-09T20:20:57.182Z,21.50
2019-02-09T20:23:27.461Z,22.00
2019-02-09T20:25:57.822Z,20.90
2019-02-09T20:28:28.136Z,20.77
2019-02-09T20:30:58.532Z,20.73
2019-02-09T20:33:29.023Z,20.97
2019-02-09T20:35:59.351Z,20.47
2019-02-09T20:38:29.945Z,21.73
2019-02-09T20:41:03.705Z,21.40
2019-02-09T20:43:35.443Z,21.27
2019-02-09T20:46:05.832Z,20.67
2019-02-09T20:48:36.253Z,20.57
2019-02-09T20:51:06.557Z,20.77
2019-02-09T20:53:36.892Z,20.90
2019-02-09T20:56:07.242Z,18.60
2019-02-09T20:58:38.664Z,22.23
2019-02-09T21:01:09.291Z,21.53
2019-02-09T21:03:39.671Z,21.53
2019-02-09T21:06:10.193Z,20.30
2019-02-09T21:08:40.756Z,19.67
2019-02-09T21:11:11.507Z,21.07
2019-02-09T21:13:41.861Z,18.93
2019-02-09T21:20:54.690Z,21.23
2019-02-09T21:23:25.558Z,20.93
2019-02-09T21:25:55.972Z,21.00
2019-02-09T21:28:26.743Z,19.10
2019-02-09T21:30:58.652Z,21.13
2019-02-09T21:33:29.283Z,16.27
2019-02-09T21:35:59.796Z,20.33
2019-02-09T21:38:30.843Z,20.27
2019-02-09T21:41:01.250Z,21.03
2019-02-09T21:43:31.921Z,20.33
2019-02-09T21:46:02.338Z,20.83
2019-02-09T21:48:32.561Z,21.43
2019-02-09T21:51:02.984Z,17.20
2019-02-09T21:53:33.499Z,21.40
2019-02-09T21:56:04.770Z,20.67
2019-02-09T21:58:35.214Z,20.50
2019-02-09T22:01:06.396Z,21.30
2019-02-09T22:03:37.588Z,21.20
2019-02-09T22:06:08.056Z,21.87
2019-02-09T22:08:39.331Z,19.03
2019-02-09T22:11:09.606Z,20.17
2019-02-09T22:13:40.096Z,21.77
2019-02-09T22:16:11.951Z,20.00
2019-02-09T22:18:42.599Z,20.07
2019-02-09T22:21:13.412Z,21.13
2019-02-09T22:23:43.727Z,20.20
2019-02-09T22:26:15.943Z,20.43
2019-02-09T22:28:46.461Z,21.97
2019-02-09T22:31:21.872Z,21.87
2019-02-09T22:33:48.891Z,23.03
2019-02-09T22:36:19.253Z,17.77
2019-02-09T22:38:50.595Z,21.50
2019-02-09T22:41:21.030Z,22.13
2019-02-09T22:43:51.291Z,20.87
2019-02-09T22:46:21.675Z,20.17
2019-02-09T22:48:52.020Z,22.17
2019-02-09T22:51:24.849Z,21.13
2019-02-09T22:53:58.073Z,22.33
2019-02-09T22:56:28.411Z,20.90
2019-02-09T22:58:58.876Z,22.67
2019-02-09T23:01:54.032Z,21.53
2019-02-09T23:04:52.357Z,23.03
2019-02-09T23:07:25.767Z,21.17
2019-02-09T23:09:57.193Z,23.63
2019-02-09T23:12:27.718Z,24.10
2019-02-09T23:14:58.008Z,24.87
2019-02-09T23:17:28.373Z,22.80
2019-02-09T23:19:58.678Z,20.73
2019-02-09T23:22:29.001Z,24.37
2019-02-09T23:24:59.316Z,23.90
2019-02-09T23:27:29.676Z,25.67
2019-02-09T23:29:59.942Z,23.47
2019-02-09T23:32:30.395Z,23.37
2019-02-09T23:35:00.809Z,23.93
2019-02-09T23:37:31.189Z,25.00
2019-02-09T23:40:01.572Z,26.07
2019-02-09T23:42:32.162Z,24.83
2019-02-09T23:45:02.410Z,24.60
2019-02-09T23:47:32.797Z,25.13
2019-02-09T23:50:03.173Z,23.47
2019-02-09T23:52:33.383Z,23.47
2019-02-09T23:55:03.731Z,25.03
2019-02-09T23:57:34.212Z,25.57
